createdAt,value
2019-02-12T00:00:49.954Z,102173.98
2019-02-12T00:03:20.997Z,102179.97
2019-02-12T00:05:50.510Z,102173.98
2019-02-12T00:08:19.994Z,102176.48
2019-02-12T00:10:50.375Z,102179.06
2019-02-12T00:13:19.865Z,102184.34
2019-02-12T00:15:49.283Z,102183.44
2019-02-12T00:18:18.691Z,102186.44
2019-02-12T00:20:48.112Z,102181.73
2019-02-12T00:23:17.523Z,102185.71
2019-02-12T00:25:46.949Z,102177.08
2019-02-12T00:28:16.363Z,102182.69
2019-02-12T00:30:45.799Z,102178.34
2019-02-12T00:33:15.201Z,102165.89
2019-02-12T00:35:44.633Z,102171.86
2019-02-12T00:38:14.035Z,102178.42
2019-02-12T00:40:43.538Z,102186.09
2019-02-12T00:43:12.949Z,102176.23
2019-02-12T00:45:42.391Z,102180.02
2019-02-12T00:48:11.798Z,102176.66
2019-02-12T00:50:41.235Z,102168.01
2019-02-12T00:53:10.645Z,102172.27
2019-02-12T00:55:40.072Z,102179.64
2019-02-12T00:58:09.485Z,102196.83
2019-02-12T01:00:38.921Z,102189.59
2019-02-12T01:03:08.411Z,102186.57
2019-02-12T01:05:37.845Z,102193.83
2019-02-12T01:08:07.401Z,102198.20
2019-02-12T01:10:36.822Z,102195.13
2019-02-12T01:13:06.376Z,102186.13
2019-02-12T01:15:35.868Z,102186.98
2019-02-12T01:18:05.422Z,102193.03
2019-02-12T01:20:34.847Z,102183.52
2019-02-12T01:23:04.394Z,102180.02
2019-02-12T01:25:33.834Z,102191.73
2019-02-12T01:28:03.311Z,102193.03
2019-02-12T01:30:33.882Z,102202.13
2019-02-12T01:33:03.304Z,102202.08
2019-02-12T01:35:32.732Z,102211.17
2019-02-12T01:38:02.220Z,102204.19
2019-02-12T01:40:31.639Z,102205.08
2019-02-12T01:43:01.122Z,102202.49
2019-02-12T01:45:30.552Z,102206.75
2019-02-12T01:47:59.962Z,102204.66
2019-02-12T01:50:29.398Z,102198.12
2019-02-12T01:52:58.799Z,102198.23
2019-02-12T01:55:28.224Z,102215.05
2019-02-12T01:57:57.636Z,102208.20
2019-02-12T02:00:27.074Z,102223.73
2019-02-12T02:02:56.483Z,102224.16
2019-02-12T02:05:25.978Z,102219.81
2019-02-12T02:07:55.398Z,102214.62
2019-02-12T02:10:24.822Z,102208.98
2019-02-12T02:12:54.242Z,102212.86
2019-02-12T02:15:23.669Z,102214.53
2019-02-12T02:17:53.073Z,102223.14
2019-02-12T02:20:22.564Z,102229.52
2019-02-12T02:22:51.982Z,102225.67
2019-02-12T02:25:21.414Z,102225.67
2019-02-12T02:27:50.824Z,102226.87
2019-02-12T02:30:20.244Z,102222.59
2019-02-12T02:32:49.713Z,102237.28
2019-02-12T02:35:20.106Z,102251.02
2019-02-12T02:37:49.506Z,102243.77
2019-02-12T02:40:18.933Z,102242.14
2019-02-12T02:42:48.420Z,102242.91
2019-02-12T02:45:17.877Z,102255.06
2019-02-12T02:47:47.268Z,102252.45
2019-02-12T02:50:16.694Z,102272.23
2019-02-12T02:52:46.105Z,102270.55
2019-02-12T02:55:15.625Z,102261.28
2019-02-12T02:57:45.037Z,102252.47
2019-02-12T03:00:14.593Z,102274.27
2019-02-12T03:02:44.082Z,102276.84
2019-02-12T03:05:13.641Z,102273.64
2019-02-12T03:07:43.083Z,102258.00
2019-02-12T03:10:12.628Z,102260.58
2019-02-12T03:12:42.047Z,102262.34
2019-02-12T03:15:11.915Z,102266.69
2019-02-12T03:17:41.341Z,102266.72
2019-02-12T03:20:12.493Z,102266.15
2019-02-12T03:22:41.922Z,102270.50
2019-02-12T03:25:11.386Z,102257.55
2019-02-12T03:27:40.811Z,102258.41
2019-02-12T03:30:13.432Z,102266.69
2019-02-12T03:32:42.921Z,102266.66
2019-02-12T03:35:12.523Z,102273.20
2019-02-12T03:37:41.954Z,102275.94
2019-02-12T03:40:12.097Z,102285.89
2019-02-12T03:42:41.612Z,102294.46
2019-02-12T03:45:14.382Z,102298.34
2019-02-12T03:47:43.810Z,102292.77
2019-02-12T03:50:13.660Z,102293.11
2019-02-12T03:52:43.094Z,102292.99
2019-02-12T03:55:13.701Z,102292.45
2019-02-12T03:57:43.309Z,102296.70
2019-02-12T04:00:15.532Z,102294.06
2019-02-12T04:03:08.328Z,102293.47
2019-02-12T04:05:38.774Z,102283.45
2019-02-12T04:08:08.346Z,102299.77
2019-02-12T04:10:37.753Z,102300.61
2019-02-12T04:13:08.813Z,102300.96
2019-02-12T04:15:38.299Z,102303.45
2019-02-12T04:18:07.797Z,102315.13
2019-02-12T04:20:37.267Z,102296.99
2019-02-12T04:23:06.706Z,102309.97
2019-02-12T04:25:36.110Z,102309.21
2019-02-12T04:28:05.532Z,102324.20
2019-02-12T04:30:34.944Z,102324.20
2019-02-12T04:33:04.376Z,102320.05
2019-02-12T04:35:33.798Z,102319.10
2019-02-12T04:38:03.230Z,102325.52
2019-02-12T04:40:32.636Z,102332.83
2019-02-12T04:43:02.075Z,102329.46
2019-02-12T04:45:31.477Z,102328.95
2019-02-12T04:48:00.896Z,102332.83
2019-02-12T04:50:30.303Z,102334.44
2019-02-12T04:52:59.798Z,102338.78
2019-02-12T04:55:29.215Z,102328.95
2019-02-12T04:58:00.612Z,102334.81
2019-02-12T05:00:29.833Z,102336.16
2019-02-12T05:02:59.348Z,102341.02
2019-02-12T05:05:28.810Z,102341.39
2019-02-12T05:07:58.238Z,102341.39
2019-02-12T05:10:36.444Z,102338.00
2019-02-12T05:13:05.882Z,102338.75
2019-02-12T05:15:35.287Z,102343.98
2019-02-12T05:18:04.787Z,102345.17
2019-02-12T05:20:34.260Z,102341.49
2019-02-12T05:23:03.691Z,102332.02
2019-02-12T05:25:33.113Z,102322.47
2019-02-12T05:28:02.634Z,102347.00
2019-02-12T05:30:31.999Z,102350.73
2019-02-12T05:33:01.497Z,102346.45
2019-02-12T05:35:30.904Z,102342.69
2019-02-12T05:38:00.349Z,102351.34
2019-02-12T05:40:29.750Z,102349.24
2019-02-12T05:42:59.191Z,102361.30
2019-02-12T05:45:28.611Z,102353.90
2019-02-12T05:47:58.111Z,102359.13
2019-02-12T05:50:27.512Z,102364.26
2019-02-12T05:52:57.505Z,102370.61
2019-02-12T05:55:26.907Z,102365.55
2019-02-12T05:57:56.338Z,102353.48
2019-02-12T06:00:27.401Z,102364.26
2019-02-12T06:02:56.821Z,102372.31
2019-02-12T06:05:27.987Z,102369.83
2019-02-12T06:07:57.421Z,102362.56
2019-02-12T06:10:26.903Z,102371.05
2019-02-12T06:12:56.343Z,102374.89
2019-02-12T06:15:25.738Z,102379.28
2019-02-12T06:17:55.174Z,102377.34
2019-02-12T06:20:26.223Z,102387.73
2019-02-12T06:23:03.457Z,102393.82
2019-02-12T06:25:26.846Z,102391.58
2019-02-12T06:27:56.289Z,102409.87
2019-02-12T06:30:25.824Z,102403.83
2019-02-12T06:32:55.279Z,102407.30
2019-02-12T06:35:24.681Z,102414.46
2019-02-12T06:37:54.108Z,102417.48
2019-02-12T06:40:23.512Z,102421.56
2019-02-12T06:42:52.943Z,102421.23
2019-02-12T06:45:22.348Z,102424.59
2019-02-12T06:47:51.765Z,102416.30
2019-02-12T06:50:21.197Z,102424.08
2019-02-12T06:52:50.600Z,102424.16
2019-02-12T06:55:20.053Z,102425.84
2019-02-12T06:57:49.454Z,102431.62
2019-02-12T07:00:18.890Z,102435.95
2019-02-12T07:03:10.169Z,102442.41
2019-02-12T07:05:54.324Z,102441.66
2019-02-12T07:08:43.352Z,102444.38
2019-02-12T07:11:47.532Z,102445.70
2019-02-12T07:14:40.488Z,102442.79
2019-02-12T07:17:15.653Z,102452.23
2019-02-12T07:19:53.890Z,102452.61
2019-02-12T07:22:32.409Z,102452.23
2019-02-12T07:25:10.319Z,102455.23
2019-02-12T07:27:59.639Z,102464.09
2019-02-12T07:30:48.557Z,102466.73
2019-02-12T07:33:23.842Z,102469.42
2019-02-12T07:36:22.263Z,102469.84
2019-02-12T07:39:10.003Z,102475.07
2019-02-12T07:41:57.319Z,102477.77
2019-02-12T07:44:32.481Z,102481.63
2019-02-12T07:47:13.593Z,102482.05
2019-02-12T07:50:07.003Z,102489.08
2019-02-12T07:53:08.120Z,102489.59
2019-02-12T07:55:43.313Z,102489.33
2019-02-12T07:58:18.821Z,102501.13
2019-02-12T08:01:03.198Z,102505.89
2019-02-12T08:03:50.746Z,102513.37
2019-02-12T08:06:40.537Z,102517.89
2019-02-12T08:09:32.425Z,102523.50
2019-02-12T08:12:16.735Z,102516.12
2019-02-12T08:14:58.329Z,102529.28
2019-02-12T08:17:59.549Z,102523.74
2019-02-12T08:20:54.103Z,102527.92
2019-02-12T08:23:41.032Z,102553.98
2019-02-12T08:26:27.085Z,102561.80
2019-02-12T08:29:29.339Z,102560.07
2019-02-12T08:32:31.779Z,102567.86
2019-02-12T08:35:13.350Z,102573.95
2019-02-12T08:38:20.052Z,102582.52
2019-02-12T08:41:10.917Z,102581.70
2019-02-12T08:44:04.299Z,102601.53
2019-02-12T08:46:54.947Z,102600.28
2019-02-12T08:50:12.187Z,102597.39
2019-02-12T08:52:47.188Z,102592.36
2019-02-12T08:55:25.243Z,102606.75
2019-02-12T08:58:00.439Z,102604.20
2019-02-12T09:00:44.217Z,102602.59
2019-02-12T09:03:41.149Z,102607.02
2019-02-12T09:06:22.419Z,102603.44
2019-02-12T09:09:29.959Z,102611.05
2019-02-12T09:12:07.973Z,102614.23
2019-02-12T09:15:14.457Z,102610.39
2019-02-12T09:17:59.357Z,102606.88
2019-02-12T09:20:37.721Z,102609.91
2019-02-12T09:23:14.289Z,102605.05
2019-02-12T09:25:46.774Z,102606.03
2019-02-12T09:28:21.938Z,102609.69
2019-02-12T09:31:00.284Z,102612.71
2019-02-12T09:34:05.697Z,102616.19
2019-02-12T09:36:44.158Z,102616.84
2019-02-12T09:39:36.918Z,102612.16
2019-02-12T09:42:21.339Z,102619.19
2019-02-12T09:44:56.482Z,102629.55
2019-02-12T09:47:40.790Z,102629.26
2019-02-12T09:50:34.321Z,102622.37
2019-02-12T09:53:21.688Z,102634.41
2019-02-12T09:56:11.576Z,102635.38
2019-02-12T09:58:56.120Z,102639.67
2019-02-12T10:01:43.654Z,102644.27
2019-02-12T10:04:34.058Z,102647.97
2019-02-12T10:07:09.728Z,102647.97
2019-02-12T10:09:46.201Z,102647.47
2019-02-12T10:12:27.655Z,102650.59
2019-02-12T10:15:03.053Z,102657.34
2019-02-12T10:17:35.598Z,102656.35
2019-02-12T10:20:24.849Z,102660.87
2019-02-12T10:23:18.507Z,102659.03
2019-02-12T10:25:50.262Z,102662.67
2019-02-12T10:28:38.105Z,102669.78
2019-02-12T10:31:11.030Z,102671.44
2019-02-12T10:33:40.536Z,102667.27
2019-02-12T10:36:10.014Z,102662.84
2019-02-12T10:38:39.454Z,102670.17
2019-02-12T10:41:08.961Z,102664.86
2019-02-12T10:43:38.395Z,102664.49
2019-02-12T10:46:07.878Z,102654.02
2019-02-12T10:48:37.441Z,102657.98
2019-02-12T10:51:06.991Z,102662.73
2019-02-12T10:53:36.419Z,102653.05
2019-02-12T10:56:06.044Z,102660.25
2019-02-12T10:58:36.583Z,102661.03
2019-02-12T11:01:06.635Z,102661.13
2019-02-12T11:03:37.675Z,102668.52
2019-02-12T11:06:07.235Z,102652.23
2019-02-12T11:08:36.759Z,102659.20
2019-02-12T11:11:06.241Z,102661.28
2019-02-12T11:13:35.894Z,102659.61
2019-02-12T11:16:06.797Z,102657.77
2019-02-12T11:18:36.364Z,102669.61
2019-02-12T11:21:11.798Z,102665.23
2019-02-12T11:23:37.536Z,102676.69
2019-02-12T11:26:07.021Z,102671.50
2019-02-12T11:28:36.452Z,102672.57
2019-02-12T11:31:06.094Z,102671.56
2019-02-12T11:33:35.540Z,102680.73
2019-02-12T11:36:05.098Z,102683.03
2019-02-12T11:38:34.592Z,102681.27
2019-02-12T11:41:04.154Z,102683.63
2019-02-12T11:43:33.584Z,102688.87
2019-02-12T11:46:03.910Z,102678.61
2019-02-12T11:48:33.467Z,102677.31
2019-02-12T11:51:02.890Z,102680.64
2019-02-12T11:53:32.329Z,102684.49
2019-02-12T11:56:01.746Z,102689.14
2019-02-12T11:58:31.204Z,102679.70
2019-02-12T12:01:00.991Z,102674.02
2019-02-12T12:03:30.493Z,102678.00
2019-02-12T12:05:59.905Z,102679.88
2019-02-12T12:08:29.328Z,102681.88
2019-02-12T12:10:58.753Z,102682.61
2019-02-12T12:13:28.162Z,102678.52
2019-02-12T12:15:57.574Z,102676.98
2019-02-12T12:18:27.004Z,102675.69
2019-02-12T12:20:56.416Z,102667.39
2019-02-12T12:23:25.933Z,102677.39
2019-02-12T12:25:55.466Z,102675.72
2019-02-12T12:28:24.972Z,102678.56
2019-02-12T12:30:54.464Z,102673.85
2019-02-12T12:33:23.977Z,102681.91
2019-02-12T12:35:53.444Z,102673.36
2019-02-12T12:38:22.886Z,102682.47
2019-02-12T12:40:52.295Z,102677.05
2019-02-12T12:43:21.802Z,102683.87
2019-02-12T12:45:51.397Z,102678.13
2019-02-12T12:48:20.845Z,102680.58
2019-02-12T12:50:50.249Z,102684.55
2019-02-12T12:53:19.708Z,102681.58
2019-02-12T12:55:49.100Z,102685.70
2019-02-12T12:58:18.527Z,102688.70
2019-02-12T13:00:48.092Z,102686.28
2019-02-12T13:03:17.669Z,102681.69
2019-02-12T13:05:47.149Z,102685.90
2019-02-12T13:08:16.727Z,102683.83
2019-02-12T13:10:46.231Z,102688.37
2019-02-12T13:13:16.942Z,102683.70
2019-02-12T13:15:46.466Z,102684.40
2019-02-12T13:18:15.879Z,102693.26
2019-02-12T13:20:45.320Z,102692.91
2019-02-12T13:23:14.733Z,102697.98
2019-02-12T13:25:44.369Z,102701.77
2019-02-12T13:28:13.778Z,102695.53
2019-02-12T13:30:43.202Z,102703.98
2019-02-12T13:33:13.150Z,102706.95
2019-02-12T13:35:42.647Z,102719.69
2019-02-12T13:38:12.137Z,102714.45
2019-02-12T13:40:41.639Z,102718.63
2019-02-12T13:43:11.059Z,102720.98
2019-02-12T13:45:40.491Z,102727.46
2019-02-12T13:48:09.978Z,102716.19
2019-02-12T13:50:39.487Z,102725.13
2019-02-12T13:53:08.967Z,102730.40
2019-02-12T13:55:38.389Z,102732.88
2019-02-12T13:58:07.789Z,102727.09
2019-02-12T14:00:37.527Z,102726.66
2019-02-12T14:03:06.939Z,102726.70
2019-02-12T14:05:36.374Z,102731.94
2019-02-12T14:08:05.891Z,102732.84
2019-02-12T14:10:35.348Z,102732.05
2019-02-12T14:13:04.908Z,102733.83
2019-02-12T14:15:34.420Z,102729.47
2019-02-12T14:18:05.214Z,102740.72
2019-02-12T14:20:34.755Z,102736.77
2019-02-12T14:23:04.242Z,102743.23
2019-02-12T14:25:33.677Z,102746.20
2019-02-12T14:28:03.114Z,102757.81
2019-02-12T14:30:32.689Z,102748.77
2019-02-12T14:33:02.108Z,102755.74
2019-02-12T14:35:31.522Z,102755.42
2019-02-12T14:38:00.934Z,102748.86
2019-02-12T14:40:30.379Z,102755.42
2019-02-12T14:42:59.800Z,102755.42
2019-02-12T14:45:29.223Z,102758.48
2019-02-12T14:47:58.648Z,102752.91
2019-02-12T14:50:28.092Z,102755.51
2019-02-12T14:52:57.576Z,102756.75
2019-02-12T14:55:33.644Z,102753.10
2019-02-12T14:57:58.618Z,102756.17
2019-02-12T15:00:28.051Z,102748.26
2019-02-12T15:02:57.527Z,102761.22
2019-02-12T15:05:26.966Z,102758.06
2019-02-12T15:07:56.379Z,102759.78
2019-02-12T15:10:25.891Z,102751.50
2019-02-12T15:12:55.284Z,102748.94
2019-02-12T15:15:24.806Z,102751.55
2019-02-12T15:17:54.291Z,102748.89
2019-02-12T15:20:23.722Z,102742.03
2019-02-12T15:22:53.135Z,102744.71
2019-02-12T15:25:22.631Z,102751.50
2019-02-12T15:27:52.043Z,102760.08
2019-02-12T15:30:21.497Z,102753.20
2019-02-12T15:32:50.906Z,102741.87
2019-02-12T15:35:20.337Z,102742.77
2019-02-12T15:37:49.757Z,102748.61
2019-02-12T15:40:20.441Z,102756.30
2019-02-12T15:42:49.927Z,102746.46
2019-02-12T15:45:23.739Z,102748.13
2019-02-12T15:47:53.293Z,102748.13
2019-02-12T15:50:22.829Z,102754.09
2019-02-12T15:52:52.242Z,102756.62
2019-02-12T15:55:22.537Z,102763.52
2019-02-12T15:57:51.939Z,102765.59
2019-02-12T16:00:21.658Z,102766.06
2019-02-12T16:02:51.135Z,102764.20
2019-02-12T16:05:20.565Z,102767.59
2019-02-12T16:07:49.977Z,102764.53
2019-02-12T16:10:20.654Z,102771.35
2019-02-12T16:12:51.570Z,102769.89
2019-02-12T16:15:24.562Z,102770.80
2019-02-12T16:17:53.483Z,102765.64
2019-02-12T16:20:23.080Z,102765.69
2019-02-12T16:22:52.510Z,102771.35
2019-02-12T16:25:21.932Z,102767.80
2019-02-12T16:27:52.422Z,102783.69
2019-02-12T16:30:22.896Z,102792.30
2019-02-12T16:32:52.374Z,102786.72
2019-02-12T16:35:21.793Z,102790.61
2019-02-12T16:37:51.238Z,102786.34
2019-02-12T16:40:20.658Z,102788.41
2019-02-12T16:42:50.156Z,102788.80
2019-02-12T16:45:43.791Z,102795.58
2019-02-12T16:48:13.231Z,102797.76
2019-02-12T16:50:42.646Z,102799.00
2019-02-12T16:53:12.151Z,102792.90
2019-02-12T16:55:41.648Z,102800.13
2019-02-12T16:58:11.148Z,102795.73
2019-02-12T17:00:40.571Z,102806.89
2019-02-12T17:03:10.210Z,102808.63
2019-02-12T17:05:39.770Z,102808.13
2019-02-12T17:08:11.130Z,102803.69
2019-02-12T17:10:40.629Z,102810.16
2019-02-12T17:13:10.343Z,102809.66
2019-02-12T17:15:39.827Z,102810.95
2019-02-12T17:18:09.423Z,102813.55
2019-02-12T17:20:38.902Z,102810.58
2019-02-12T17:23:08.334Z,102812.25
2019-02-12T17:25:37.752Z,102810.42
2019-02-12T17:28:07.259Z,102814.53
2019-02-12T17:30:36.847Z,102817.00
2019-02-12T17:33:06.423Z,102812.20
2019-02-12T17:35:35.911Z,102812.98
2019-02-12T17:38:05.339Z,102819.41
2019-02-12T17:40:34.755Z,102812.83
2019-02-12T17:43:04.395Z,102811.41
2019-02-12T17:45:33.891Z,102810.01
2019-02-12T17:48:03.430Z,102816.83
2019-02-12T17:50:32.907Z,102805.48
2019-02-12T17:53:02.410Z,102808.45
2019-02-12T17:55:31.895Z,102813.60
2019-02-12T17:58:01.321Z,102816.56
2019-02-12T18:00:34.829Z,102818.75
2019-02-12T18:03:04.581Z,102816.59
2019-02-12T18:05:35.141Z,102814.73
2019-02-12T18:08:04.650Z,102814.62
2019-02-12T18:10:34.083Z,102812.31
2019-02-12T18:13:03.523Z,102812.69
2019-02-12T18:15:32.954Z,102807.40
2019-02-12T18:18:02.481Z,102805.16
2019-02-12T18:20:31.907Z,102811.97
2019-02-12T18:23:01.662Z,102809.75
2019-02-12T18:25:31.149Z,102805.12
2019-02-12T18:28:00.602Z,102803.28
2019-02-12T18:30:30.085Z,102798.71
2019-02-12T18:32:59.525Z,102797.69
2019-02-12T18:35:28.962Z,102789.92
2019-02-12T18:37:58.488Z,102788.05
2019-02-12T18:40:27.920Z,102786.17
2019-02-12T18:42:58.414Z,102786.88
2019-02-12T18:45:27.912Z,102795.09
2019-02-12T18:47:57.358Z,102792.80
2019-02-12T18:50:26.920Z,102793.51
2019-02-12T18:52:56.356Z,102790.77
2019-02-12T18:55:28.828Z,102800.23
2019-02-12T18:57:58.344Z,102810.92
2019-02-12T19:00:27.843Z,102813.17
2019-02-12T19:02:57.420Z,102815.66
2019-02-12T19:05:26.912Z,102813.84
2019-02-12T19:07:56.438Z,102812.55
2019-02-12T19:10:26.030Z,102811.11
2019-02-12T19:12:55.625Z,102808.48
2019-02-12T19:15:26.132Z,102804.89
2019-02-12T19:18:04.380Z,102807.77
2019-02-12T19:20:33.807Z,102805.22
2019-02-12T19:23:03.318Z,102806.92
2019-02-12T19:25:32.884Z,102804.48
2019-02-12T19:28:02.427Z,102807.55
2019-02-12T19:30:31.935Z,102812.69
2019-02-12T19:33:02.457Z,102814.31
2019-02-12T19:35:31.946Z,102815.53
2019-02-12T19:38:01.394Z,102808.18
2019-02-12T19:40:30.920Z,102805.55
2019-02-12T19:43:00.486Z,102812.75
2019-02-12T19:45:30.005Z,102807.02
2019-02-12T19:47:59.508Z,102811.75
2019-02-12T19:50:28.987Z,102817.32
2019-02-12T19:52:58.495Z,102820.60
2019-02-12T19:55:29.014Z,102820.60
2019-02-12T19:57:58.452Z,102823.96
2019-02-12T20:00:27.953Z,102818.87
2019-02-12T20:02:57.455Z,102813.00
2019-02-12T20:05:26.973Z,102813.05
2019-02-12T20:07:56.467Z,102818.66
2019-02-12T20:10:25.904Z,102817.03
2019-02-12T20:12:55.340Z,102814.89
2019-02-12T20:15:24.778Z,102821.61
2019-02-12T20:17:54.281Z,102822.69
2019-02-12T20:20:23.723Z,102830.41
2019-02-12T20:22:53.291Z,102820.44
2019-02-12T20:25:22.744Z,102808.88
2019-02-12T20:27:52.165Z,102813.56
2019-02-12T20:30:21.617Z,102811.46
2019-02-12T20:32:51.099Z,102804.18
2019-02-12T20:35:22.741Z,102806.03
2019-02-12T20:37:52.232Z,102812.94
2019-02-12T20:40:21.665Z,102806.48
2019-02-12T20:42:51.370Z,102813.50
2019-02-12T20:45:20.881Z,102810.02
2019-02-12T20:47:50.384Z,102802.48
2019-02-12T20:50:21.168Z,102798.39
2019-02-12T20:52:50.651Z,102795.58
2019-02-12T20:55:20.280Z,102789.66
2019-02-12T20:57:49.693Z,102794.91
2019-02-12T21:00:23.770Z,102804.59
2019-02-12T21:02:53.262Z,102807.73
2019-02-12T21:05:22.775Z,102813.31
2019-02-12T21:07:53.165Z,102819.08
2019-02-12T21:10:23.712Z,102820.41
2019-02-12T21:12:54.099Z,102818.22
2019-02-12T21:15:25.965Z,102804.12
2019-02-12T21:17:55.458Z,102811.55
2019-02-12T21:20:25.946Z,102808.97
2019-02-12T21:22:56.018Z,102809.89
2019-02-12T21:25:25.457Z,102811.97
2019-02-12T21:27:54.948Z,102804.30
2019-02-12T21:30:29.465Z,102808.15
2019-02-12T21:32:58.965Z,102805.29
2019-02-12T21:35:28.417Z,102802.26
2019-02-12T21:37:58.322Z,102799.67
2019-02-12T21:40:28.302Z,102803.55
2019-02-12T21:43:01.638Z,102817.45
2019-02-12T21:45:41.164Z,102824.88
2019-02-12T21:48:12.091Z,102823.96
2019-02-12T21:50:41.538Z,102817.93
2019-02-12T21:53:11.026Z,102825.66
2019-02-12T21:55:40.468Z,102818.17
2019-02-12T21:58:11.623Z,102811.66
2019-02-12T22:00:41.085Z,102828.09
2019-02-12T22:03:10.502Z,102830.20
2019-02-12T22:05:39.922Z,102826.79
2019-02-12T22:08:09.369Z,102831.46
2019-02-12T22:10:46.192Z,102830.34
2019-02-12T22:13:11.083Z,102829.04
2019-02-12T22:15:40.707Z,102831.56
2019-02-12T22:18:10.212Z,102838.58
2019-02-12T22:20:39.631Z,102839.27
2019-02-12T22:23:09.327Z,102853.98
2019-02-12T22:25:39.015Z,102861.86
2019-02-12T22:28:08.465Z,102860.16
2019-02-12T22:30:37.882Z,102854.64
2019-02-12T22:33:07.587Z,102859.44
2019-02-12T22:35:37.083Z,102856.34
2019-02-12T22:38:06.735Z,102849.42
2019-02-12T22:40:36.147Z,102848.50
2019-02-12T22:43:05.578Z,102853.41
2019-02-12T22:45:34.997Z,102849.11
2019-02-12T22:48:04.581Z,102854.30
2019-02-12T22:50:34.001Z,102854.36
2019-02-12T22:53:03.435Z,102862.13
2019-02-12T22:55:32.854Z,102855.66
2019-02-12T22:58:02.291Z,102842.84
2019-02-12T23:00:39.491Z,102840.34
2019-02-12T23:03:09.951Z,102846.48
2019-02-12T23:05:39.367Z,102849.92
2019-02-12T23:08:10.371Z,102850.81
2019-02-12T23:10:39.991Z,102846.64
2019-02-12T23:13:09.493Z,102841.02
2019-02-12T23:15:39.056Z,102835.49
2019-02-12T23:18:08.562Z,102827.14
2019-02-12T23:20:38.043Z,102825.16
2019-02-12T23:23:08.573Z,102814.38
2019-02-12T23:25:39.000Z,102817.31
2019-02-12T23:28:08.603Z,102813.52
2019-02-12T23:30:40.665Z,102817.13
2019-02-12T23:33:14.144Z,102817.98
2019-02-12T23:35:43.579Z,102826.23
2019-02-12T23:38:17.445Z,102825.98
2019-02-12T23:40:47.178Z,102832.04
2019-02-12T23:43:16.690Z,102835.52
2019-02-12T23:45:46.115Z,102827.80
2019-02-12T23:48:17.096Z,102840.42
2019-02-12T23:50:49.059Z,102846.36
2019-02-12T23:53:22.688Z,102864.98
2019-02-12T23:55:55.383Z,102862.80
2019-02-12T23:58:26.858Z,102857.69
